Time,TemperatureF,DewpointF,PressureIn,WindDirection,WindDirectionDegrees,WindSpeedMPH,WindSpeedGustMPH,Humidity,HourlyPrecipIn,Conditions,Clouds,dailyrainin,SoftwareType,DateUTC
2013-01-06 14:02:00,39.0,7.0,-100.00,SW,215,16.0,19.0,26,0.00,,,-99.99,,2013-01-06 21:02:00,
2013-01-06 14:12:00,40.0,9.0,-100.00,SW,216,16.0,20.0,27,0.00,,,-99.99,,2013-01-06 21:12:00,
2013-01-06 14:22:00,41.0,6.0,-100.00,SW,217,13.0,17.0,24,0.00,,,-99.99,,2013-01-06 21:22:00,
2013-01-06 14:33:00,42.0,7.0,-100.00,SW,226,13.0,19.0,23,0.00,,,-99.99,,2013-01-06 21:33:00,
2013-01-06 14:42:00,40.0,10.0,-100.00,SW,224,11.0,15.0,28,0.00,,,-99.99,,2013-01-06 21:42:00,
2013-01-06 14:52:00,40.0,5.0,-100.00,SW,217,13.0,17.0,23,0.00,,,-99.99,,2013-01-06 21:52:00,
2013-01-06 15:02:00,41.0,9.0,-100.00,SW,216,12.0,15.0,26,0.00,,,-99.99,,2013-01-06 22:02:00,
2013-01-06 15:12:00,41.0,7.0,-100.00,SW,219,11.0,15.0,24,0.00,,,-99.99,,2013-01-06 22:12:00,
2013-01-06 15:22:00,36.0,9.0,-100.00,SSW,200,9.0,14.0,32,0.00,,,-99.99,,2013-01-06 22:22:00,
2013-01-06 15:33:00,37.0,12.0,-100.00,SSW,198,12.0,16.0,35,0.00,,,-99.99,,2013-01-06 22:33:00,
2013-01-06 15:43:00,38.0,4.0,-100.00,SSW,195,11.0,14.0,24,0.00,,,-99.99,,2013-01-06 22:43:00,
2013-01-06 15:52:00,37.0,8.0,-100.00,SSW,200,11.0,14.0,29,0.00,,,-99.99,,2013-01-06 22:52:00,
2013-01-06 16:02:00,38.0,4.0,-100.00,SSW,213,9.0,12.0,24,0.00,,,-99.99,,2013-01-06 23:02:00,
2013-01-06 16:12:00,38.0,4.0,-100.00,SW,217,9.0,12.0,23,0.00,,,-99.99,,2013-01-06 23:12:00,
2013-01-06 16:22:00,36.0,5.0,-100.00,SSW,213,8.0,10.0,27,0.00,,,-99.99,,2013-01-06 23:22:00,
2013-01-06 16:33:00,34.0,4.0,-100.00,SW,227,10.0,14.0,28,0.00,,,-99.99,,2013-01-06 23:33:00,
2013-01-06 16:42:00,37.0,4.0,-100.00,SW,236,12.0,14.0,24,0.00,,,-99.99,,2013-01-06 23:42:00,
2013-01-06 16:52:00,37.0,3.0,-100.00,SW,234,11.0,12.0,23,0.00,,,-99.99,,2013-01-06 23:52:00,
2013-01-06 17:02:00,37.0,2.0,-100.00,SW,232,10.0,12.0,23,0.00,,,-99.99,,2013-01-07 00:02:00,
2013-01-06 17:12:00,37.0,0.0,-100.00,SW,226,10.0,12.0,21,0.00,,,-99.99,,2013-01-07 00:12:00,
2013-01-06 17:23:00,38.0,-1.0,-100.00,SSW,213,9.0,10.0,19,0.00,,,-99.99,,2013-01-07 00:23:00,
2013-01-06 17:32:00,36.0,0.0,-100.00,SSW,196,9.0,12.0,21,0.00,,,-99.99,,2013-01-07 00:32:00,
2013-01-06 17:42:00,35.0,1.0,-100.00,South,186,9.0,12.0,23,0.00,,,-99.99,,2013-01-07 00:42:00,
2013-01-06 17:52:00,36.0,-1.0,-100.00,South,184,7.0,11.0,21,0.00,,,-99.99,,2013-01-07 00:52:00,
2013-01-06 18:02:00,37.0,-3.0,-100.00,South,181,9.0,14.0,18,0.00,,,-99.99,,2013-01-07 01:02:00,
2013-01-06 18:12:00,36.0,-1.0,-100.00,South,175,9.0,14.0,19,0.00,,,-99.99,,2013-01-07 01:12:00,
2013-01-06 18:22:00,34.0,0.0,-100.00,South,182,8.0,12.0,23,0.00,,,-99.99,,2013-01-07 01:22:00,
2013-01-06 18:32:00,37.0,-3.0,-100.00,South,188,11.0,18.0,18,0.00,,,-99.99,,2013-01-07 01:32:00,
2013-01-06 18:42:00,35.0,-3.0,-100.00,South,188,10.0,16.0,19,0.00,,,-99.99,,2013-01-07 01:42:00,
2013-01-06 18:52:00,31.0,2.0,-100.00,SSW,202,14.0,19.0,28,0.00,,,-99.99,,2013-01-07 01:52:00,
2013-01-06 19:02:00,31.0,1.0,-100.00,SSW,200,9.0,14.0,27,0.00,,,-99.99,,2013-01-07 02:02:00,
2013-01-06 19:12:00,35.0,-1.0,-100.00,SSW,206,9.0,13.0,21,0.00,,,-99.99,,2013-01-07 02:12:00,
2013-01-06 19:22:00,33.0,3.0,-100.00,SSW,213,10.0,14.0,27,0.00,,,-99.99,,2013-01-07 02:22:00,
2013-01-06 19:32:00,32.0,1.0,-100.00,SW,220,12.0,16.0,27,0.00,,,-99.99,,2013-01-07 02:32:00,
2013-01-06 19:42:00,32.0,2.0,-100.00,SW,216,13.0,17.0,26,0.00,,,-99.99,,2013-01-07 02:42:00,
2013-01-06 19:52:00,32.0,3.0,-100.00,South,191,16.0,21.0,29,0.00,,,-99.99,,2013-01-07 02:52:00,
2013-01-06 20:02:00,32.0,6.0,-100.00,SSW,203,16.0,20.0,33,0.00,,,-99.99,,2013-01-07 03:02:00,
2013-01-06 20:12:00,33.0,3.0,-100.00,SSW,203,17.0,22.0,27,0.00,,,-99.99,,2013-01-07 03:12:00,
2013-01-06 20:22:00,36.0,2.0,-100.00,SSW,192,17.0,22.0,23,0.00,,,-99.99,,2013-01-07 03:22:00,
2013-01-06 20:33:00,33.0,6.0,-100.00,South,188,17.0,22.0,32,0.00,,,-99.99,,2013-01-07 03:33:00,
2013-01-06 20:42:00,31.0,5.0,-100.00,South,191,16.0,19.0,32,0.00,,,-99.99,,2013-01-07 03:42:00,
2013-01-06 20:52:00,33.0,6.0,-100.00,SSW,196,13.0,17.0,32,0.00,,,-99.99,,2013-01-07 03:52:00,
2013-01-06 21:02:00,32.0,7.0,-100.00,SSW,196,13.0,17.0,34,0.00,,,-99.99,,2013-01-07 04:02:00,
2013-01-06 21:12:00,30.0,4.0,-100.00,SSW,193,12.0,16.0,33,0.00,,,-99.99,,2013-01-07 04:12:00,
2013-01-06 21:22:00,29.0,7.0,-100.00,SSW,206,10.0,12.0,39,0.00,,,-99.99,,2013-01-07 04:22:00,
2013-01-06 21:32:00,31.0,5.0,-100.00,SW,223,11.0,14.0,33,0.00,,,-99.99,,2013-01-07 04:32:00,
2013-01-06 21:42:00,30.0,4.0,-100.00,SSW,213,11.0,12.0,33,0.00,,,-99.99,,2013-01-07 04:42:00,
2013-01-06 21:52:00,28.0,4.0,-100.00,SSW,193,12.0,17.0,35,0.00,,,-99.99,,2013-01-07 04:52:00,
2013-01-06 22:02:00,27.0,4.0,-100.00,South,191,14.0,17.0,36,0.00,,,-99.99,,2013-01-07 05:02:00,
2013-01-06 22:12:00,27.0,3.0,-100.00,SSW,195,15.0,18.0,35,0.00,,,-99.99,,2013-01-07 05:12:00,
2013-01-06 22:22:00,28.0,2.0,-100.00,SSW,195,15.0,19.0,32,0.00,,,-99.99,,2013-01-07 05:22:00,
2013-01-06 22:33:00,26.0,2.0,-100.00,SSW,195,13.0,17.0,35,0.00,,,-99.99,,2013-01-07 05:33:00,
2013-01-06 22:42:00,26.0,2.0,-100.00,SSW,196,12.0,16.0,36,0.00,,,-99.99,,2013-01-07 05:42:00,
2013-01-06 22:52:00,27.0,2.0,-100.00,SSW,210,9.0,12.0,33,0.00,,,-99.99,,2013-01-07 05:52:00,
2013-01-06 23:02:00,26.0,3.0,-100.00,SW,217,10.0,14.0,37,0.00,,,-99.99,,2013-01-07 06:02:00,
2013-01-06 23:12:00,26.0,2.0,-100.00,SW,219,11.0,15.0,36,0.00,,,-99.99,,2013-01-07 06:12:00,
2013-01-06 23:22:00,26.0,2.0,-100.00,SSW,206,11.0,14.0,34,0.00,,,-99.99,,2013-01-07 06:22:00,
2013-01-06 23:32:00,27.0,0.0,-100.00,SW,236,7.0,16.0,31,0.00,,,-99.99,,2013-01-07 06:32:00,
2013-01-06 23:42:00,26.0,0.0,-100.00,West,265,6.0,16.0,32,0.00,,,-99.99,,2013-01-07 06:42:00,
2013-01-06 23:52:00,28.0,-1.0,-100.00,ENE,58,2.0,9.0,29,0.00,,,-99.99,,2013-01-07 06:52:00,